sensor_id;sensor_type;location;lat;lon;timestamp;pressure;altitude;pressure_sealevel;temperature;humidity
48041;BME280;33815;48.386;11.738;2023-03-03T00:00:26;96593.22;;;-1.92;100.00
48041;BME280;33815;48.386;11.738;2023-03-03T00:02:51;96597.22;;;-2.05;100.00
48041;BME280;33815;48.386;11.738;2023-03-03T00:05:16;96597.53;;;-2.11;100.00
48041;BME280;33815;48.386;11.738;2023-03-03T00:07:45;96598.06;;;-2.04;100.00
48041;BME280;33815;48.386;11.738;2023-03-03T00:10:11;96595.31;;;-2.19;100.00
48041;BME280;33815;48.386;11.738;2023-03-03T00:12:45;96583.81;;;-2.28;100.00
48041;BME280;33815;48.386;11.738;2023-03-03T00:15:23;96613.16;;;-2.17;100.00
48041;BME280;33815;48.386;11.738;2023-03-03T00:17:49;96608.84;;;-2.17;100.00
48041;BME280;33815;48.386;11.738;2023-03-03T00:20:37;96614.13;;;-2.20;100.00
48041;BME280;33815;48.386;11.738;2023-03-03T00:23:13;96595.84;;;-2.30;100.00
48041;BME280;33815;48.386;11.738;2023-03-03T00:25:44;96610.63;;;-2.19;100.00
48041;BME280;33815;48.386;11.738;2023-03-03T00:28:40;96608.78;;;-2.15;100.00
48041;BME280;33815;48.386;11.738;2023-03-03T00:31:16;96616.38;;;-2.14;100.00
48041;BME280;33815;48.386;11.738;2023-03-03T00:33:47;96608.16;;;-2.20;100.00
48041;BME280;33815;48.386;11.738;2023-03-03T00:38:40;96604.31;;;-2.29;100.00
48041;BME280;33815;48.386;11.738;2023-03-03T00:41:18;96593.63;;;-2.37;100.00
48041;BME280;33815;48.386;11.738;2023-03-03T00:43:44;96615.34;;;-2.29;100.00
48041;BME280;33815;48.386;11.738;2023-03-03T00:46:09;96616.13;;;-2.27;100.00
48041;BME280;33815;48.386;11.738;2023-03-03T00:48:41;96613.97;;;-2.36;100.00
48041;BME280;33815;48.386;11.738;2023-03-03T00:53:48;96608.88;;;-2.36;100.00
48041;BME280;33815;48.386;11.738;2023-03-03T00:56:13;96595.28;;;-2.55;100.00
48041;BME280;33815;48.386;11.738;2023-03-03T00:58:39;96609.78;;;-2.56;100.00
48041;BME280;33815;48.386;11.738;2023-03-03T01:01:04;96615.28;;;-2.46;100.00
48041;BME280;33815;48.386;11.738;2023-03-03T01:03:29;96603.06;;;-2.59;100.00
48041;BME280;33815;48.386;11.738;2023-03-03T01:05:55;96618.72;;;-2.47;100.00
48041;BME280;33815;48.386;11.738;2023-03-03T01:08:21;96613.44;;;-2.43;100.00
48041;BME280;33815;48.386;11.738;2023-03-03T01:11:08;96602.81;;;-2.52;100.00
48041;BME280;33815;48.386;11.738;2023-03-03T01:13:39;96606.81;;;-2.47;100.00
48041;BME280;33815;48.386;11.738;2023-03-03T01:16:06;96604.34;;;-2.48;100.00
48041;BME280;33815;48.386;11.738;2023-03-03T01:18:31;96589.34;;;-2.56;100.00
48041;BME280;33815;48.386;11.738;2023-03-03T01:20:56;96592.28;;;-2.64;100.00
48041;BME280;33815;48.386;11.738;2023-03-03T01:23:22;96601.38;;;-2.58;100.00
48041;BME280;33815;48.386;11.738;2023-03-03T01:25:47;96600.38;;;-2.55;100.00
48041;BME280;33815;48.386;11.738;2023-03-03T01:28:13;96601.78;;;-2.48;100.00
48041;BME280;33815;48.386;11.738;2023-03-03T01:30:38;96586.19;;;-2.61;100.00
48041;BME280;33815;48.386;11.738;2023-03-03T01:33:04;96599.06;;;-2.64;100.00
48041;BME280;33815;48.386;11.738;2023-03-03T01:35:29;96593.34;;;-2.69;100.00
48041;BME280;33815;48.386;11.738;2023-03-03T01:37:54;96588.44;;;-2.74;100.00
48041;BME280;33815;48.386;11.738;2023-03-03T01:40:22;96610.38;;;-2.70;100.00
48041;BME280;33815;48.386;11.738;2023-03-03T01:42:48;96604.66;;;-2.75;100.00
48041;BME280;33815;48.386;11.738;2023-03-03T01:45:26;96608.13;;;-2.76;100.00
48041;BME280;33815;48.386;11.738;2023-03-03T01:48:04;96603.09;;;-2.78;100.00
48041;BME280;33815;48.386;11.738;2023-03-03T01:50:37;96610.03;;;-2.81;100.00
48041;BME280;33815;48.386;11.738;2023-03-03T01:53:05;96617.13;;;-2.88;100.00
48041;BME280;33815;48.386;11.738;2023-03-03T01:55:36;96616.63;;;-2.96;100.00
48041;BME280;33815;48.386;11.738;2023-03-03T01:58:07;96603.38;;;-3.04;100.00
48041;BME280;33815;48.386;11.738;2023-03-03T02:00:37;96612.59;;;-3.02;100.00
48041;BME280;33815;48.386;11.738;2023-03-03T02:03:03;96604.66;;;-3.15;100.00
48041;BME280;33815;48.386;11.738;2023-03-03T02:05:29;96613.78;;;-3.09;100.00
48041;BME280;33815;48.386;11.738;2023-03-03T02:07:54;96597.78;;;-3.13;100.00
48041;BME280;33815;48.386;11.738;2023-03-03T02:10:20;96602.81;;;-3.11;100.00
48041;BME280;33815;48.386;11.738;2023-03-03T02:12:51;96604.97;;;-3.02;100.00
48041;BME280;33815;48.386;11.738;2023-03-03T02:15:23;96606.81;;;-3.05;100.00
48041;BME280;33815;48.386;11.738;2023-03-03T02:17:53;96591.03;;;-3.14;100.00
48041;BME280;33815;48.386;11.738;2023-03-03T02:20:37;96601.03;;;-3.09;100.00
48041;BME280;33815;48.386;11.738;2023-03-03T02:23:15;96585.22;;;-3.17;100.00
48041;BME280;33815;48.386;11.738;2023-03-03T02:28:24;96599.63;;;-3.16;100.00
48041;BME280;33815;48.386;11.738;2023-03-03T02:30:54;96591.28;;;-3.20;100.00
48041;BME280;33815;48.386;11.738;2023-03-03T02:33:20;96600.50;;;-3.17;100.00
48041;BME280;33815;48.386;11.738;2023-03-03T02:35:45;96595.31;;;-3.14;100.00
48041;BME280;33815;48.386;11.738;2023-03-03T02:40:44;96598.91;;;-3.20;100.00
48041;BME280;33815;48.386;11.738;2023-03-03T02:43:15;96601.44;;;-3.18;100.00
48041;BME280;33815;48.386;11.738;2023-03-03T02:45:43;96596.44;;;-3.21;100.00
48041;BME280;33815;48.386;11.738;2023-03-03T02:48:09;96592.78;;;-3.35;100.00
48041;BME280;33815;48.386;11.738;2023-03-03T02:50:35;96597.78;;;-3.33;100.00
48041;BME280;33815;48.386;11.738;2023-03-03T02:53:00;96602.31;;;-3.19;100.00
48041;BME280;33815;48.386;11.738;2023-03-03T02:55:25;96600.06;;;-3.27;100.00
48041;BME280;33815;48.386;11.738;2023-03-03T02:57:51;96609.53;;;-3.29;100.00
48041;BME280;33815;48.386;11.738;2023-03-03T03:00:16;96601.22;;;-3.34;100.00
48041;BME280;33815;48.386;11.738;2023-03-03T03:02:41;96592.19;;;-3.41;100.00
48041;BME280;33815;48.386;11.738;2023-03-03T03:05:07;96597.28;;;-3.41;100.00
48041;BME280;33815;48.386;11.738;2023-03-03T03:07:33;96592.91;;;-3.38;100.00
48041;BME280;33815;48.386;11.738;2023-03-03T03:09:58;96588.56;;;-3.36;100.00
48041;BME280;33815;48.386;11.738;2023-03-03T03:12:23;96590.28;;;-3.36;100.00
48041;BME280;33815;48.386;11.738;2023-03-03T03:14:49;96577.41;;;-3.54;100.00
48041;BME280;33815;48.386;11.738;2023-03-03T03:17:14;96578.94;;;-3.50;100.00
48041;BME280;33815;48.386;11.738;2023-03-03T03:19:39;96584.75;;;-3.46;100.00
48041;BME280;33815;48.386;11.738;2023-03-03T03:22:04;96582.81;;;-3.41;100.00
48041;BME280;33815;48.386;11.738;2023-03-03T03:24:30;96594.53;;;-3.37;100.00
48041;BME280;33815;48.386;11.738;2023-03-03T03:26:55;96591.91;;;-3.35;100.00
48041;BME280;33815;48.386;11.738;2023-03-03T03:29:20;96603.41;;;-3.25;100.00
48041;BME280;33815;48.386;11.738;2023-03-03T03:31:46;96601.28;;;-3.15;100.00
48041;BME280;33815;48.386;11.738;2023-03-03T03:34:11;96603.94;;;-2.98;100.00
48041;BME280;33815;48.386;11.738;2023-03-03T03:36:36;96603.00;;;-2.76;100.00
48041;BME280;33815;48.386;11.738;2023-03-03T03:39:04;96608.25;;;-2.60;100.00
48041;BME280;33815;48.386;11.738;2023-03-03T03:41:30;96596.69;;;-2.48;100.00
48041;BME280;33815;48.386;11.738;2023-03-03T03:43:55;96607.16;;;-2.35;100.00
48041;BME280;33815;48.386;11.738;2023-03-03T03:46:20;96608.69;;;-2.31;100.00
48041;BME280;33815;48.386;11.738;2023-03-03T03:48:46;96614.44;;;-2.28;100.00
48041;BME280;33815;48.386;11.738;2023-03-03T03:51:11;96615.75;;;-2.19;100.00
48041;BME280;33815;48.386;11.738;2023-03-03T03:53:36;96615.47;;;-2.13;100.00
48041;BME280;33815;48.386;11.738;2023-03-03T03:56:02;96605.50;;;-2.17;100.00
48041;BME280;33815;48.386;11.738;2023-03-03T03:58:27;96605.25;;;-2.13;100.00
48041;BME280;33815;48.386;11.738;2023-03-03T04:00:52;96601.75;;;-2.10;100.00
48041;BME280;33815;48.386;11.738;2023-03-03T04:03:18;96604.81;;;-2.03;100.00
48041;BME280;33815;48.386;11.738;2023-03-03T04:05:43;96595.44;;;-2.03;100.00
48041;BME280;33815;48.386;11.738;2023-03-03T04:08:08;96568.91;;;-2.18;100.00
48041;BME280;33815;48.386;11.738;2023-03-03T04:10:34;96613.50;;;-1.88;100.00
48041;BME280;33815;48.386;11.738;2023-03-03T04:12:59;96602.94;;;-1.81;100.00
48041;BME280;33815;48.386;11.738;2023-03-03T04:15:24;96608.34;;;-1.69;100.00
48041;BME280;33815;48.386;11.738;2023-03-03T04:17:50;96605.13;;;-1.56;100.00
48041;BME280;33815;48.386;11.738;2023-03-03T04:20:15;96586.31;;;-1.72;100.00
48041;BME280;33815;48.386;11.738;2023-03-03T04:22:41;96607.38;;;-1.67;100.00
48041;BME280;33815;48.386;11.738;2023-03-03T04:25:08;96610.66;;;-1.65;100.00
48041;BME280;33815;48.386;11.738;2023-03-03T04:27:35;96609.97;;;-1.68;100.00
48041;BME280;33815;48.386;11.738;2023-03-03T04:30:02;96615.56;;;-1.60;100.00
48041;BME280;33815;48.386;11.738;2023-03-03T04:32:27;96601.25;;;-1.64;100.00
48041;BME280;33815;48.386;11.738;2023-03-03T04:34:54;96607.06;;;-1.61;100.00
48041;BME280;33815;48.386;11.738;2023-03-03T04:37:19;96601.06;;;-1.60;100.00
48041;BME280;33815;48.386;11.738;2023-03-03T04:39:45;96591.88;;;-1.64;100.00
48041;BME280;33815;48.386;11.738;2023-03-03T04:42:10;96588.41;;;-1.63;100.00
48041;BME280;33815;48.386;11.738;2023-03-03T04:44:36;96596.69;;;-1.58;100.00
48041;BME280;33815;48.386;11.738;2023-03-03T04:47:01;96599.69;;;-1.49;100.00
48041;BME280;33815;48.386;11.738;2023-03-03T04:49:27;96591.88;;;-1.46;100.00
48041;BME280;33815;48.386;11.738;2023-03-03T04:51:52;96580.91;;;-1.48;100.00
48041;BME280;33815;48.386;11.738;2023-03-03T04:54:18;96582.53;;;-1.47;100.00
48041;BME280;33815;48.386;11.738;2023-03-03T04:56:43;96594.97;;;-1.40;100.00
48041;BME280;33815;48.386;11.738;2023-03-03T04:59:08;96592.47;;;-1.41;100.00
48041;BME280;33815;48.386;11.738;2023-03-03T05:01:33;96594.88;;;-1.38;100.00
48041;BME280;33815;48.386;11.738;2023-03-03T05:03:59;96579.84;;;-1.44;100.00
48041;BME280;33815;48.386;11.738;2023-03-03T05:06:24;96602.09;;;-1.29;100.00
48041;BME280;33815;48.386;11.738;2023-03-03T05:08:49;96604.75;;;-1.30;100.00
48041;BME280;33815;48.386;11.738;2023-03-03T05:11:14;96596.22;;;-1.31;100.00
48041;BME280;33815;48.386;11.738;2023-03-03T05:13:40;96596.66;;;-1.23;100.00
48041;BME280;33815;48.386;11.738;2023-03-03T05:16:05;96586.69;;;-1.27;100.00
48041;BME280;33815;48.386;11.738;2023-03-03T05:18:31;96600.56;;;-1.15;100.00
48041;BME280;33815;48.386;11.738;2023-03-03T05:20:56;96601.34;;;-1.13;100.00
48041;BME280;33815;48.386;11.738;2023-03-03T05:23:22;96607.34;;;-1.14;100.00
48041;BME280;33815;48.386;11.738;2023-03-03T05:25:49;96604.63;;;-1.11;100.00
48041;BME280;33815;48.386;11.738;2023-03-03T05:28:15;96602.75;;;-1.08;100.00
48041;BME280;33815;48.386;11.738;2023-03-03T05:30:40;96598.00;;;-1.15;100.00
48041;BME280;33815;48.386;11.738;2023-03-03T05:33:06;96613.06;;;-1.09;100.00
48041;BME280;33815;48.386;11.738;2023-03-03T05:35:31;96598.78;;;-1.13;100.00
48041;BME280;33815;48.386;11.738;2023-03-03T05:37:57;96615.31;;;-1.03;100.00
48041;BME280;33815;48.386;11.738;2023-03-03T05:40:24;96615.75;;;-0.95;100.00
48041;BME280;33815;48.386;11.738;2023-03-03T05:42:49;96614.09;;;-0.96;100.00
48041;BME280;33815;48.386;11.738;2023-03-03T05:45:15;96610.34;;;-1.06;100.00
48041;BME280;33815;48.386;11.738;2023-03-03T05:47:44;96593.59;;;-1.12;100.00
48041;BME280;33815;48.386;11.738;2023-03-03T05:50:09;96622.66;;;-0.97;100.00
48041;BME280;33815;48.386;11.738;2023-03-03T05:52:36;96625.97;;;-0.95;100.00
48041;BME280;33815;48.386;11.738;2023-03-03T05:55:01;96607.16;;;-0.94;100.00
48041;BME280;33815;48.386;11.738;2023-03-03T05:57:26;96609.22;;;-1.00;100.00
48041;BME280;33815;48.386;11.738;2023-03-03T05:59:52;96628.13;;;-0.87;100.00
48041;BME280;33815;48.386;11.738;2023-03-03T06:02:17;96640.03;;;-0.86;100.00
48041;BME280;33815;48.386;11.738;2023-03-03T06:04:42;96625.16;;;-0.95;100.00
48041;BME280;33815;48.386;11.738;2023-03-03T06:07:07;96637.38;;;-0.84;100.00
48041;BME280;33815;48.386;11.738;2023-03-03T06:09:33;96637.81;;;-0.76;100.00
48041;BME280;33815;48.386;11.738;2023-03-03T06:11:58;96633.75;;;-0.80;100.00
48041;BME280;33815;48.386;11.738;2023-03-03T06:14:23;96640.31;;;-0.75;100.00
48041;BME280;33815;48.386;11.738;2023-03-03T06:16:49;96636.47;;;-0.66;100.00
48041;BME280;33815;48.386;11.738;2023-03-03T06:19:14;96626.13;;;-0.64;100.00
48041;BME280;33815;48.386;11.738;2023-03-03T06:21:40;96638.94;;;-0.48;100.00
48041;BME280;33815;48.386;11.738;2023-03-03T06:24:06;96634.31;;;-0.58;100.00
48041;BME280;33815;48.386;11.738;2023-03-03T06:26:32;96636.72;;;-0.55;100.00
48041;BME280;33815;48.386;11.738;2023-03-03T06:28:58;96639.03;;;-0.50;100.00
48041;BME280;33815;48.386;11.738;2023-03-03T06:31:23;96626.97;;;-0.48;100.00
48041;BME280;33815;48.386;11.738;2023-03-03T06:33:48;96627.38;;;-0.56;100.00
48041;BME280;33815;48.386;11.738;2023-03-03T06:36:15;96641.50;;;-0.48;100.00
48041;BME280;33815;48.386;11.738;2023-03-03T06:38:40;96643.91;;;-0.45;100.00
48041;BME280;33815;48.386;11.738;2023-03-03T06:41:06;96635.81;;;-0.54;100.00
48041;BME280;33815;48.386;11.738;2023-03-03T06:43:33;96657.13;;;-0.37;100.00
48041;BME280;33815;48.386;11.738;2023-03-03T06:45:58;96652.19;;;-0.40;100.00
48041;BME280;33815;48.386;11.738;2023-03-03T06:48:24;96668.53;;;-0.27;100.00
48041;BME280;33815;48.386;11.738;2023-03-03T06:50:49;96648.56;;;-0.36;100.00
48041;BME280;33815;48.386;11.738;2023-03-03T06:53:16;96678.16;;;-0.14;100.00
48041;BME280;33815;48.386;11.738;2023-03-03T06:55:42;96658.16;;;-0.24;100.00
48041;BME280;33815;48.386;11.738;2023-03-03T06:58:21;96686.34;;;-0.08;100.00
48041;BME280;33815;48.386;11.738;2023-03-03T07:00:59;96690.56;;;0.09;100.00
48041;BME280;33815;48.386;11.738;2023-03-03T07:03:32;96692.03;;;0.13;100.00
48041;BME280;33815;48.386;11.738;2023-03-03T07:05:59;96698.16;;;0.11;100.00
48041;BME280;33815;48.386;11.738;2023-03-03T07:08:25;96692.84;;;0.14;100.00
48041;BME280;33815;48.386;11.738;2023-03-03T07:10:54;96677.34;;;0.17;100.00
48041;BME280;33815;48.386;11.738;2023-03-03T07:13:20;96685.91;;;0.48;100.00
48041;BME280;33815;48.386;11.738;2023-03-03T07:15:47;96693.75;;;0.45;100.00
48041;BME280;33815;48.386;11.738;2023-03-03T07:20:54;96690.72;;;0.38;100.00
48041;BME280;33815;48.386;11.738;2023-03-03T07:23:24;96698.47;;;0.53;100.00
48041;BME280;33815;48.386;11.738;2023-03-03T07:25:51;96705.13;;;0.71;100.00
48041;BME280;33815;48.386;11.738;2023-03-03T07:28:23;96707.69;;;0.71;100.00
48041;BME280;33815;48.386;11.738;2023-03-03T07:30:49;96690.28;;;0.62;100.00
48041;BME280;33815;48.386;11.738;2023-03-03T07:33:37;96692.53;;;0.82;100.00
48041;BME280;33815;48.386;11.738;2023-03-03T07:36:23;96689.94;;;0.82;100.00
48041;BME280;33815;48.386;11.738;2023-03-03T07:38:53;96696.38;;;0.90;100.00
48041;BME280;33815;48.386;11.738;2023-03-03T07:41:19;96691.00;;;0.94;100.00
48041;BME280;33815;48.386;11.738;2023-03-03T07:43:52;96703.06;;;1.08;100.00
48041;BME280;33815;48.386;11.738;2023-03-03T07:46:28;96713.44;;;1.21;100.00
48041;BME280;33815;48.386;11.738;2023-03-03T07:48:58;96700.88;;;1.31;100.00
48041;BME280;33815;48.386;11.738;2023-03-03T07:53:55;96716.13;;;1.48;100.00
48041;BME280;33815;48.386;11.738;2023-03-03T07:56:29;96708.59;;;1.60;100.00
48041;BME280;33815;48.386;11.738;2023-03-03T07:58:58;96704.84;;;1.65;100.00
48041;BME280;33815;48.386;11.738;2023-03-03T08:04:28;96717.72;;;2.21;100.00
48041;BME280;33815;48.386;11.738;2023-03-03T08:06:57;96728.16;;;2.47;100.00
48041;BME280;33815;48.386;11.738;2023-03-03T08:11:54;96712.47;;;2.37;100.00
48041;BME280;33815;48.386;11.738;2023-03-03T08:14:27;96726.03;;;2.54;100.00
48041;BME280;33815;48.386;11.738;2023-03-03T08:16:54;96730.22;;;2.55;100.00
48041;BME280;33815;48.386;11.738;2023-03-03T08:19:20;96730.03;;;2.58;100.00
48041;BME280;33815;48.386;11.738;2023-03-03T08:21:45;96719.72;;;2.58;100.00
48041;BME280;33815;48.386;11.738;2023-03-03T08:24:10;96725.06;;;2.55;100.00
48041;BME280;33815;48.386;11.738;2023-03-03T08:26:36;96727.03;;;2.51;100.00
48041;BME280;33815;48.386;11.738;2023-03-03T08:29:01;96727.44;;;2.72;100.00
48041;BME280;33815;48.386;11.738;2023-03-03T08:31:27;96726.81;;;2.82;100.00
48041;BME280;33815;48.386;11.738;2023-03-03T08:33:53;96734.84;;;2.77;100.00
48041;BME280;33815;48.386;11.738;2023-03-03T08:36:18;96735.78;;;2.89;100.00
48041;BME280;33815;48.386;11.738;2023-03-03T08:38:44;96733.00;;;2.79;100.00
48041;BME280;33815;48.386;11.738;2023-03-03T08:41:09;96728.03;;;2.76;100.00
48041;BME280;33815;48.386;11.738;2023-03-03T08:43:34;96732.16;;;2.79;100.00
48041;BME280;33815;48.386;11.738;2023-03-03T08:46:01;96733.28;;;3.15;100.00
48041;BME280;33815;48.386;11.738;2023-03-03T08:48:28;96736.81;;;3.26;100.00
48041;BME280;33815;48.386;11.738;2023-03-03T08:50:54;96735.91;;;3.40;100.00
48041;BME280;33815;48.386;11.738;2023-03-03T08:53:20;96731.47;;;3.55;100.00
48041;BME280;33815;48.386;11.738;2023-03-03T08:55:46;96734.75;;;3.32;100.00
48041;BME280;33815;48.386;11.738;2023-03-03T08:58:12;96750.34;;;3.43;100.00
48041;BME280;33815;48.386;11.738;2023-03-03T09:00:38;96731.06;;;3.49;100.00
48041;BME280;33815;48.386;11.738;2023-03-03T09:03:04;96738.09;;;3.59;100.00
48041;BME280;33815;48.386;11.738;2023-03-03T09:05:34;96748.91;;;3.90;100.00
48041;BME280;33815;48.386;11.738;2023-03-03T09:08:00;96746.63;;;3.99;100.00
48041;BME280;33815;48.386;11.738;2023-03-03T09:10:28;96739.69;;;3.99;98.72
48041;BME280;33815;48.386;11.738;2023-03-03T09:12:56;96749.09;;;4.00;100.00
48041;BME280;33815;48.386;11.738;2023-03-03T09:15:30;96745.69;;;3.87;100.00
48041;BME280;33815;48.386;11.738;2023-03-03T09:17:58;96741.78;;;4.44;100.00
48041;BME280;33815;48.386;11.738;2023-03-03T09:20:36;96740.88;;;4.32;98.82
48041;BME280;33815;48.386;11.738;2023-03-03T09:23:34;96741.19;;;4.89;94.19
48041;BME280;33815;48.386;11.738;2023-03-03T09:28:36;96750.47;;;4.91;93.91
48041;BME280;33815;48.386;11.738;2023-03-03T09:31:02;96750.94;;;4.96;95.36
48041;BME280;33815;48.386;11.738;2023-03-03T09:33:44;96756.75;;;5.47;94.49
48041;BME280;33815;48.386;11.738;2023-03-03T09:36:32;96750.22;;;5.54;91.06
48041;BME280;33815;48.386;11.738;2023-03-03T09:38:59;96753.06;;;5.27;93.34
48041;BME280;33815;48.386;11.738;2023-03-03T09:44:18;96765.63;;;4.96;94.25
48041;BME280;33815;48.386;11.738;2023-03-03T09:47:11;96770.13;;;5.41;91.13
48041;BME280;33815;48.386;11.738;2023-03-03T09:58:25;96764.16;;;6.10;90.23
48041;BME280;33815;48.386;11.738;2023-03-03T10:06:26;96750.13;;;6.46;87.84
48041;BME280;33815;48.386;11.738;2023-03-03T10:09:14;96760.81;;;6.97;85.79
48041;BME280;33815;48.386;11.738;2023-03-03T10:11:56;96770.34;;;6.64;88.02
48041;BME280;33815;48.386;11.738;2023-03-03T10:22:52;96768.66;;;7.60;79.64
48041;BME280;33815;48.386;11.738;2023-03-03T10:25:29;96757.25;;;7.72;77.87
48041;BME280;33815;48.386;11.738;2023-03-03T10:28:18;96766.69;;;7.31;79.74
48041;BME280;33815;48.386;11.738;2023-03-03T10:34:06;96758.34;;;7.91;77.74
48041;BME280;33815;48.386;11.738;2023-03-03T10:36:39;96775.31;;;7.53;75.15
48041;BME280;33815;48.386;11.738;2023-03-03T10:39:54;96779.72;;;7.83;77.65
48041;BME280;33815;48.386;11.738;2023-03-03T10:47:49;96777.59;;;7.25;78.29
48041;BME280;33815;48.386;11.738;2023-03-03T10:59:20;96766.59;;;8.06;71.67
48041;BME280;33815;48.386;11.738;2023-03-03T11:01:57;96756.50;;;7.82;71.50
48041;BME280;33815;48.386;11.738;2023-03-03T11:05:08;96766.16;;;8.01;75.16
48041;BME280;33815;48.386;11.738;2023-03-03T11:07:46;96751.09;;;8.66;71.11
48041;BME280;33815;48.386;11.738;2023-03-03T11:13:23;96740.69;;;8.66;70.86
48041;BME280;33815;48.386;11.738;2023-03-03T11:18:31;96748.47;;;8.56;70.64
48041;BME280;33815;48.386;11.738;2023-03-03T11:29:18;96738.56;;;9.30;67.73
48041;BME280;33815;48.386;11.738;2023-03-03T11:32:32;96728.66;;;9.53;67.84
48041;BME280;33815;48.386;11.738;2023-03-03T11:38:02;96711.19;;;9.73;66.90
48041;BME280;33815;48.386;11.738;2023-03-03T11:43:37;96730.16;;;10.03;66.44
48041;BME280;33815;48.386;11.738;2023-03-03T11:46:14;96725.53;;;10.25;65.71
48041;BME280;33815;48.386;11.738;2023-03-03T11:48:53;96725.84;;;9.84;62.25
48041;BME280;33815;48.386;11.738;2023-03-03T11:54:30;96738.41;;;9.02;66.29
48041;BME280;33815;48.386;11.738;2023-03-03T11:57:09;96739.97;;;9.72;67.23
48041;BME280;33815;48.386;11.738;2023-03-03T11:59:47;96731.16;;;10.30;65.53
48041;BME280;33815;48.386;11.738;2023-03-03T12:02:57;96731.13;;;10.02;65.13
48041;BME280;33815;48.386;11.738;2023-03-03T12:05:38;96725.44;;;9.89;64.50
48041;BME280;33815;48.386;11.738;2023-03-03T12:08:26;96726.50;;;9.39;67.05
48041;BME280;33815;48.386;11.738;2023-03-03T12:11:10;96718.50;;;9.60;67.07
48041;BME280;33815;48.386;11.738;2023-03-03T12:13:52;96697.22;;;9.74;63.91
48041;BME280;33815;48.386;11.738;2023-03-03T12:16:41;96703.72;;;9.98;63.16
48041;BME280;33815;48.386;11.738;2023-03-03T12:19:16;96702.38;;;10.22;63.56
48041;BME280;33815;48.386;11.738;2023-03-03T12:27:28;96686.56;;;10.61;62.00
48041;BME280;33815;48.386;11.738;2023-03-03T12:30:18;96677.34;;;10.85;61.86
48041;BME280;33815;48.386;11.738;2023-03-03T12:35:41;96687.53;;;10.78;59.90
48041;BME280;33815;48.386;11.738;2023-03-03T12:41:38;96685.81;;;10.87;58.83
48041;BME280;33815;48.386;11.738;2023-03-03T12:44:01;96692.69;;;11.06;57.96
48041;BME280;33815;48.386;11.738;2023-03-03T12:49:05;96671.69;;;11.60;58.51
48041;BME280;33815;48.386;11.738;2023-03-03T12:51:36;96672.72;;;11.67;56.35
48041;BME280;33815;48.386;11.738;2023-03-03T12:55:25;96674.53;;;11.75;58.79
48041;BME280;33815;48.386;11.738;2023-03-03T13:00:15;96668.00;;;11.44;56.59
48041;BME280;33815;48.386;11.738;2023-03-03T13:03:04;96667.66;;;11.39;56.58
48041;BME280;33815;48.386;11.738;2023-03-03T13:08:18;96672.91;;;11.21;58.78
48041;BME280;33815;48.386;11.738;2023-03-03T13:11:17;96660.38;;;11.77;57.42
48041;BME280;33815;48.386;11.738;2023-03-03T13:14:01;96657.88;;;11.94;55.66
48041;BME280;33815;48.386;11.738;2023-03-03T13:16:32;96654.50;;;11.83;54.57
48041;BME280;33815;48.386;11.738;2023-03-03T13:19:02;96649.75;;;11.79;55.06
48041;BME280;33815;48.386;11.738;2023-03-03T13:21:38;96663.41;;;11.99;56.79
48041;BME280;33815;48.386;11.738;2023-03-03T13:26:57;96656.31;;;12.18;54.52
48041;BME280;33815;48.386;11.738;2023-03-03T13:29:58;96648.34;;;12.36;54.54
48041;BME280;33815;48.386;11.738;2023-03-03T13:32:33;96632.50;;;12.21;53.12
48041;BME280;33815;48.386;11.738;2023-03-03T13:35:08;96641.88;;;11.97;53.84
48041;BME280;33815;48.386;11.738;2023-03-03T13:37:40;96641.38;;;11.67;54.22
48041;BME280;33815;48.386;11.738;2023-03-03T13:40:18;96652.16;;;11.98;55.70
48041;BME280;33815;48.386;11.738;2023-03-03T13:42:54;96650.91;;;12.11;53.77
48041;BME280;33815;48.386;11.738;2023-03-03T13:45:36;96623.94;;;12.10;54.14
48041;BME280;33815;48.386;11.738;2023-03-03T13:50:52;96640.84;;;12.32;53.08
48041;BME280;33815;48.386;11.738;2023-03-03T13:53:34;96638.91;;;12.34;53.75
48041;BME280;33815;48.386;11.738;2023-03-03T13:59:21;96636.31;;;12.67;52.77
48041;BME280;33815;48.386;11.738;2023-03-03T14:04:44;96622.72;;;12.39;53.47
48041;BME280;33815;48.386;11.738;2023-03-03T14:07:21;96629.91;;;12.29;52.66
48041;BME280;33815;48.386;11.738;2023-03-03T14:12:37;96621.25;;;12.37;53.63
48041;BME280;33815;48.386;11.738;2023-03-03T14:15:17;96628.88;;;12.22;53.52
48041;BME280;33815;48.386;11.738;2023-03-03T14:18:08;96617.09;;;12.09;53.52
48041;BME280;33815;48.386;11.738;2023-03-03T14:20:43;96628.47;;;11.65;54.59
48041;BME280;33815;48.386;11.738;2023-03-03T14:23:26;96620.91;;;11.54;55.70
48041;BME280;33815;48.386;11.738;2023-03-03T14:28:38;96621.75;;;11.55;55.21
48041;BME280;33815;48.386;11.738;2023-03-03T14:31:16;96631.97;;;11.48;54.67
48041;BME280;33815;48.386;11.738;2023-03-03T14:34:13;96639.38;;;11.61;55.52
48041;BME280;33815;48.386;11.738;2023-03-03T14:36:41;96616.78;;;11.43;55.34
48041;BME280;33815;48.386;11.738;2023-03-03T14:41:54;96629.88;;;11.25;56.46
48041;BME280;33815;48.386;11.738;2023-03-03T14:44:28;96639.47;;;11.17;56.31
48041;BME280;33815;48.386;11.738;2023-03-03T14:47:02;96631.00;;;11.23;55.19
48041;BME280;33815;48.386;11.738;2023-03-03T14:49:30;96624.41;;;11.37;56.08
48041;BME280;33815;48.386;11.738;2023-03-03T14:52:24;96631.13;;;11.39;55.99
48041;BME280;33815;48.386;11.738;2023-03-03T14:54:55;96625.31;;;11.27;56.47
48041;BME280;33815;48.386;11.738;2023-03-03T15:05:27;96624.66;;;10.81;57.97
48041;BME280;33815;48.386;11.738;2023-03-03T15:07:56;96625.34;;;10.65;57.74
48041;BME280;33815;48.386;11.738;2023-03-03T15:10:30;96631.53;;;10.82;57.08
48041;BME280;33815;48.386;11.738;2023-03-03T15:12:56;96632.78;;;10.60;57.75
48041;BME280;33815;48.386;11.738;2023-03-03T15:15:24;96625.13;;;10.12;58.79
48041;BME280;33815;48.386;11.738;2023-03-03T15:26:08;96640.34;;;9.42;61.82
48041;BME280;33815;48.386;11.738;2023-03-03T15:28:53;96654.81;;;8.97;64.43